Time;durP1;ratioP1;P1;durP2;ratioP2;P2;SDS_P1;SDS_P2;PMS_P1;PMS_P2;Temp;Humidity;BMP_temperature;BMP_pressure;BME280_temperature;BME280_humidity;BME280_pressure;Samples;Min_cycle;Max_cycle;Signal;HPM_P1;HPM_P2
2022/11/09 00:02:08;;;;;;;13.52;2.08;;;;;;;14.81;100.00;96736.75;6033133;23;20026;-91
2022/11/09 00:04:34;;;;;;;11.30;1.80;;;;;;;15.29;100.00;96721.59;6055489;23;20034;-91
2022/11/09 00:07:01;;;;;;;14.00;2.80;;;;;;;15.21;100.00;96705.47;6056673;23;20673;-91
2022/11/09 00:09:26;;;;;;;13.13;2.60;;;;;;;15.13;100.00;96708.56;6030942;23;20015;-92
2022/11/09 00:11:53;;;;;;;10.23;1.95;;;;;;;15.42;100.00;96712.97;6030656;23;20022;-90
2022/11/09 00:14:19;;;;;;;16.08;2.17;;;;;;;14.98;100.00;96707.69;6031624;23;20023;-91
2022/11/09 00:16:45;;;;;;;11.70;2.40;;;;;;;14.88;100.00;96711.81;6033201;23;20017;-90
2022/11/09 00:19:12;;;;;;;10.55;2.15;;;;;;;15.47;100.00;96689.91;6032525;23;20250;-91
2022/11/09 00:21:37;;;;;;;12.90;1.95;;;;;;;15.06;100.00;96707.25;6056024;23;20038;-90
2022/11/09 00:24:03;;;;;;;12.50;1.98;;;;;;;14.75;100.00;96703.84;6030997;23;20341;-92
2022/11/09 00:26:28;;;;;;;12.15;1.83;;;;;;;15.18;100.00;96719.66;6057340;23;20042;-92
2022/11/09 00:28:54;;;;;;;12.18;2.08;;;;;;;15.39;100.00;96706.13;6057460;23;20378;-91
2022/11/09 00:31:21;;;;;;;12.20;1.90;;;;;;;15.46;100.00;96696.09;6031485;23;20488;-91
2022/11/09 00:33:54;;;;;;;10.50;1.88;;;;;;;15.69;100.00;96663.94;6031526;23;20010;-91
2022/11/09 00:36:21;;;;;;;14.23;1.90;;;;;;;15.59;100.00;96665.50;6057059;23;20019;-91
2022/11/09 00:38:49;;;;;;;13.35;2.13;;;;;;;14.87;100.00;96693.53;6032231;23;20959;-92
2022/11/09 00:41:15;;;;;;;12.30;1.70;;;;;;;15.58;100.00;96690.06;6056984;23;20003;-90
2022/11/09 00:43:40;;;;;;;14.77;1.80;;;;;;;16.07;100.00;96672.97;6056165;23;20003;-93
2022/11/09 00:46:06;;;;;;;11.13;1.77;;;;;;;14.86;100.00;96687.44;6032380;23;20024;-91
2022/11/09 00:48:32;;;;;;;10.27;1.88;;;;;;;15.17;100.00;96696.94;6033516;23;20135;-91
2022/11/09 00:50:58;;;;;;;11.15;1.73;;;;;;;15.36;100.00;96672.16;6058756;23;20015;-91
2022/11/09 00:53:24;;;;;;;9.63;1.58;;;;;;;14.90;100.00;96696.81;6057961;23;20481;-92
2022/11/09 00:56:01;;;;;;;8.60;1.42;;;;;;;15.02;100.00;96703.94;6059524;23;20014;-91
2022/11/09 00:58:28;;;;;;;8.73;1.63;;;;;;;15.03;100.00;96710.06;6032519;23;20017;-91
2022/11/09 01:00:55;;;;;;;11.80;2.10;;;;;;;15.42;100.00;96708.56;6034178;23;20042;-91
2022/11/09 01:03:22;;;;;;;13.77;1.60;;;;;;;15.02;100.00;96717.06;6033578;23;20030;-91
2022/11/09 01:05:47;;;;;;;13.35;1.70;;;;;;;15.47;100.00;96726.66;6033468;23;20033;-90
2022/11/09 01:08:13;;;;;;;12.38;1.60;;;;;;;15.12;100.00;96722.63;6035808;23;20409;-91
2022/11/09 01:10:41;;;;;;;9.13;1.70;;;;;;;15.11;100.00;96717.47;6035348;23;20015;-90
2022/11/09 01:13:06;;;;;;;9.32;2.00;;;;;;;15.14;100.00;96731.25;6035856;23;20030;-91
2022/11/09 01:15:32;;;;;;;13.40;1.80;;;;;;;15.11;100.00;96734.06;6060174;23;20026;-91
2022/11/09 01:17:57;;;;;;;12.95;1.85;;;;;;;14.84;100.00;96753.13;6033794;23;20102;-91
2022/11/09 01:20:23;;;;;;;13.05;1.73;;;;;;;14.97;100.00;96737.50;6032720;23;20528;-91
2022/11/09 01:22:48;;;;;;;10.07;1.67;;;;;;;15.10;100.00;96729.75;6059675;23;20082;-90
2022/11/09 01:25:14;;;;;;;11.48;2.13;;;;;;;15.09;100.00;96707.06;6056793;23;20349;-91
2022/11/09 01:27:39;;;;;;;14.02;2.08;;;;;;;14.59;100.00;96743.19;6033154;23;20022;-92
2022/11/09 01:30:05;;;;;;;11.40;1.80;;;;;;;15.00;100.00;96739.97;6057067;23;20022;-91
2022/11/09 01:32:31;;;;;;;10.82;1.90;;;;;;;15.62;100.00;96728.34;6031973;23;20090;-91
2022/11/09 01:34:57;;;;;;;16.55;1.83;;;;;;;15.39;100.00;96715.78;6032845;23;20317;-91
2022/11/09 01:37:22;;;;;;;10.82;2.00;;;;;;;15.17;100.00;96724.97;6032749;23;20066;-91
2022/11/09 01:39:47;;;;;;;13.65;2.35;;;;;;;15.27;100.00;96722.66;6058972;23;20001;-91
2022/11/09 01:42:14;;;;;;;13.48;2.28;;;;;;;14.88;100.00;96731.94;6032394;23;20034;-91
2022/11/09 01:44:39;;;;;;;14.55;2.80;;;;;;;15.53;100.00;96726.28;6058642;23;20097;-92
2022/11/09 01:47:12;;;;;;;9.25;1.63;;;;;;;15.28;100.00;96722.56;6034820;23;20011;-91
2022/11/09 01:49:57;;;;;;;12.95;1.80;;;;;;;15.50;100.00;96708.09;6033969;23;20019;-91
2022/11/09 01:52:43;;;;;;;13.73;2.05;;;;;;;15.74;100.00;96694.34;6033341;23;20022;-91
2022/11/09 01:55:14;;;;;;;11.38;1.60;;;;;;;15.34;100.00;96709.03;6034599;23;20041;-92
2022/11/09 01:57:50;;;;;;;13.30;1.90;;;;;;;15.25;100.00;96693.81;6033799;23;20015;-90
2022/11/09 02:00:16;;;;;;;9.95;1.70;;;;;;;15.03;100.00;96717.94;6056434;23;20019;-91
2022/11/09 02:02:51;;;;;;;10.15;1.80;;;;;;;15.20;100.00;96711.66;6058918;23;20014;-91
2022/11/09 02:05:22;;;;;;;10.75;2.05;;;;;;;15.60;100.00;96697.84;6032353;23;20052;-91
2022/11/09 02:07:48;;;;;;;10.98;2.25;;;;;;;16.08;100.00;96679.94;6032702;23;20049;-91
2022/11/09 02:10:40;;;;;;;15.10;2.20;;;;;;;14.92;100.00;96722.97;6057436;23;20003;-91
2022/11/09 02:13:08;;;;;;;12.75;1.85;;;;;;;14.94;100.00;96726.34;6021098;23;20018;-91
2022/11/09 02:15:35;;;;;;;12.93;2.22;;;;;;;15.31;100.00;96735.50;6058478;23;20022;-91
2022/11/09 02:18:02;;;;;;;11.07;2.35;;;;;;;15.61;100.00;96710.88;6032273;23;20134;-91
2022/11/09 02:20:28;;;;;;;11.18;1.90;;;;;;;15.88;100.00;96681.22;6031967;23;20090;-91
2022/11/09 02:22:54;;;;;;;10.80;2.33;;;;;;;15.74;100.00;96681.22;6032367;23;20097;-91
2022/11/09 02:25:20;;;;;;;10.88;1.75;;;;;;;15.77;100.00;96688.91;6032380;23;20353;-90
2022/11/09 02:27:46;;;;;;;9.80;2.08;;;;;;;15.66;100.00;96684.34;6032149;23;20065;-91
2022/11/09 02:30:13;;;;;;;9.48;1.92;;;;;;;15.78;100.00;96693.22;6031355;23;20021;-91
2022/11/09 02:32:38;;;;;;;12.43;2.35;;;;;;;15.39;100.00;96687.72;6032597;23;20031;-91
2022/11/09 02:35:04;;;;;;;12.75;2.28;;;;;;;15.68;100.00;96700.84;6032694;23;20023;-91
2022/11/09 02:37:41;;;;;;;11.70;1.77;;;;;;;16.13;100.00;96671.75;6057905;23;20014;-91
2022/11/09 02:40:11;;;;;;;14.90;1.95;;;;;;;15.25;100.00;96704.34;6032483;23;20019;-91
2022/11/09 02:42:37;;;;;;;10.57;1.80;;;;;;;15.59;100.00;96691.75;6032326;23;20010;-91
2022/11/09 02:45:03;;;;;;;11.63;1.70;;;;;;;15.74;100.00;96697.84;6032075;23;20464;-91
2022/11/09 02:47:28;;;;;;;12.52;2.05;;;;;;;15.50;100.00;96706.31;6058170;23;20006;-91
2022/11/09 02:49:56;;;;;;;14.27;2.22;;;;;;;15.95;100.00;96693.03;6057742;23;20026;-91
2022/11/09 02:52:22;;;;;;;13.75;1.95;;;;;;;15.73;100.00;96696.16;6058603;23;20007;-91
2022/11/09 02:54:48;;;;;;;9.88;1.92;;;;;;;15.40;100.00;96693.84;6033015;23;20030;-90
2022/11/09 02:57:13;;;;;;;11.90;1.80;;;;;;;15.17;100.00;96707.44;6032881;23;20015;-90
2022/11/09 02:59:38;;;;;;;13.40;1.83;;;;;;;15.14;100.00;96719.91;6055226;23;20010;-91
2022/11/09 03:04:37;;;;;;;17.20;1.90;;;;;;;15.40;100.00;96717.50;6085485;23;20117;-93
2022/11/09 03:07:02;;;;;;;14.60;2.08;;;;;;;15.31;100.00;96701.34;6062428;23;20018;-95
2022/11/09 03:09:28;;;;;;;11.25;1.95;;;;;;;15.64;100.00;96715.13;6090430;23;20114;-94
2022/11/09 03:11:53;;;;;;;10.35;2.20;;;;;;;15.11;100.00;96728.81;6086895;23;20010;-93
2022/11/09 03:14:19;;;;;;;13.70;2.80;;;;;;;14.71;100.00;96756.56;6066155;23;20017;-93
2022/11/09 03:16:44;;;;;;;9.50;1.80;;;;;;;14.70;100.00;96741.75;6064626;23;20006;-94
2022/11/09 03:19:10;;;;;;;8.15;1.80;;;;;;;14.79;100.00;96768.28;6088051;23;20014;-94
2022/11/09 03:21:35;;;;;;;11.93;1.98;;;;;;;15.13;100.00;96763.69;6090311;23;20131;-93
2022/11/09 03:24:01;;;;;;;11.88;2.33;;;;;;;14.81;100.00;96755.09;6065552;23;20121;-94
2022/11/09 03:26:26;;;;;;;14.98;2.10;;;;;;;14.94;100.00;96757.84;6065456;23;20018;-94
2022/11/09 03:28:51;;;;;;;8.27;1.60;;;;;;;15.21;100.00;96768.47;6065628;23;20340;-92
2022/11/09 03:31:18;;;;;;;11.73;2.13;;;;;;;14.90;100.00;96741.44;6088069;23;20006;-94
2022/11/09 03:33:43;;;;;;;12.63;1.98;;;;;;;15.21;100.00;96721.22;6063085;23;20010;-94
2022/11/09 03:36:09;;;;;;;14.15;2.22;;;;;;;15.76;100.00;96724.03;6064058;23;20021;-93
2022/11/09 03:38:35;;;;;;;12.57;1.90;;;;;;;15.15;100.00;96698.81;6064732;23;20022;-93
2022/11/09 03:41:01;;;;;;;10.50;1.80;;;;;;;15.17;100.00;96710.06;6065763;23;20010;-93
2022/11/09 03:43:28;;;;;;;15.20;2.90;;;;;;;15.04;100.00;96709.09;6063343;23;20311;-94
2022/11/09 03:45:54;;;;;;;13.35;2.17;;;;;;;15.27;100.00;96717.41;6062688;23;20067;-93
2022/11/09 03:48:19;;;;;;;9.73;1.65;;;;;;;14.87;100.00;96733.75;6064086;23;20014;-94
2022/11/09 03:50:44;;;;;;;17.60;2.42;;;;;;;15.21;100.00;96725.63;6064071;23;20037;-94
2022/11/09 03:53:11;;;;;;;7.93;1.52;;;;;;;15.47;100.00;96742.44;6089204;23;20451;-95
2022/11/09 03:55:38;;;;;;;9.88;1.90;;;;;;;15.48;100.00;96718.69;6088719;23;20022;-94
2022/11/09 03:58:05;;;;;;;8.73;1.80;;;;;;;15.73;100.00;96734.72;6064386;23;20388;-94
2022/11/09 04:00:30;;;;;;;11.70;2.03;;;;;;;15.46;100.00;96744.22;6064010;23;20022;-93
2022/11/09 04:02:56;;;;;;;8.65;2.00;;;;;;;15.64;100.00;96739.63;6054948;23;20307;-93
2022/11/09 04:05:23;;;;;;;11.38;1.92;;;;;;;15.12;100.00;96755.91;6036681;23;20011;-92
2022/11/09 04:07:52;;;;;;;8.93;1.60;;;;;;;15.06;100.00;96766.75;6036333;23;20038;-94
2022/11/09 04:10:19;;;;;;;9.98;1.85;;;;;;;14.90;100.00;96762.41;6035669;23;20014;-92
2022/11/09 04:12:44;;;;;;;11.88;1.95;;;;;;;15.06;100.00;96777.28;6058907;23;20019;-93
2022/11/09 04:15:11;;;;;;;12.85;1.67;;;;;;;15.01;100.00;96769.66;6060061;23;20030;-93
2022/11/09 04:17:36;;;;;;;10.65;1.92;;;;;;;15.39;100.00;96770.94;6034750;23;20011;-92
2022/11/09 04:20:03;;;;;;;13.85;2.03;;;;;;;14.97;100.00;96779.50;6036192;23;20017;-93
2022/11/09 04:22:28;;;;;;;14.05;2.08;;;;;;;15.44;100.00;96787.28;6060397;23;20029;-94
2022/11/09 04:24:54;;;;;;;13.73;2.25;;;;;;;15.00;100.00;96783.72;6034882;23;20332;-93
2022/11/09 04:27:20;;;;;;;13.07;2.42;;;;;;;15.87;100.00;96774.16;6033998;23;20062;-93
2022/11/09 04:29:45;;;;;;;13.25;2.00;;;;;;;15.05;100.00;96784.31;6060929;23;20053;-93
2022/11/09 04:32:10;;;;;;;9.45;1.70;;;;;;;15.02;100.00;96789.75;6058231;23;20003;-94
2022/11/09 04:34:36;;;;;;;9.90;2.05;;;;;;;15.63;100.00;96771.22;6056711;23;20060;-92
2022/11/09 04:37:02;;;;;;;8.82;1.98;;;;;;;15.17;100.00;96790.59;6035922;23;20475;-94
2022/11/09 04:39:27;;;;;;;11.82;1.75;;;;;;;15.44;100.00;96779.41;6035090;23;20018;-94
2022/11/09 04:41:52;;;;;;;12.00;1.88;;;;;;;15.00;100.00;96786.34;6037920;23;20065;-93
2022/11/09 04:44:18;;;;;;;8.93;1.70;;;;;;;14.92;100.00;96796.44;6037633;23;20456;-91
2022/11/09 04:46:43;;;;;;;9.65;1.60;;;;;;;15.28;100.00;96790.84;6036960;23;20022;-93
2022/11/09 04:49:08;;;;;;;8.93;1.70;;;;;;;14.97;100.00;96807.53;6036518;23;20030;-93
2022/11/09 04:51:34;;;;;;;8.98;2.00;;;;;;;15.20;100.00;96798.31;6035493;23;20796;-92
2022/11/09 04:53:59;;;;;;;9.10;1.80;;;;;;;15.33;100.00;96811.56;6037497;23;20014;-93
2022/11/09 04:56:25;;;;;;;13.07;1.92;;;;;;;15.17;100.00;96790.59;6035394;23;20014;-92
2022/11/09 04:58:52;;;;;;;11.43;2.20;;;;;;;15.44;100.00;96809.13;6035263;23;20026;-93
2022/11/09 05:01:18;;;;;;;9.77;1.55;;;;;;;15.17;100.00;96811.59;6033732;23;20026;-92
2022/11/09 05:03:43;;;;;;;11.93;1.73;;;;;;;15.17;100.00;96816.84;6052325;23;20463;-93
2022/11/09 05:08:54;;;;;;;11.70;1.60;;;;;;;15.35;100.00;96814.91;6091378;23;20033;-93
2022/11/09 05:11:19;;;;;;;7.32;1.55;;;;;;;15.69;100.00;96800.59;6090970;23;20010;-93
2022/11/09 05:13:45;;;;;;;11.40;2.10;;;;;;;15.98;100.00;96800.63;6089836;23;20021;-93
2022/11/09 05:16:10;;;;;;;11.82;1.80;;;;;;;16.26;100.00;96800.69;6065247;23;20014;-92
2022/11/09 05:18:36;;;;;;;11.57;1.88;;;;;;;16.45;100.00;96769.63;6065763;23;20085;-93
2022/11/09 05:21:02;;;;;;;10.35;1.70;;;;;;;15.60;100.00;96784.56;6064774;23;20044;-94
2022/11/09 05:26:13;;;;;;;12.23;1.50;;;;;;;15.99;100.00;96786.53;6090521;23;20081;-94
2022/11/09 05:28:39;;;;;;;8.35;1.58;;;;;;;16.13;100.00;96769.91;6064480;23;20021;-92
2022/11/09 05:31:05;;;;;;;8.23;1.60;;;;;;;15.69;100.00;96797.13;6065898;23;20026;-93
2022/11/09 05:33:31;;;;;;;7.75;1.60;;;;;;;16.67;100.00;96769.06;6063801;23;20003;-93
2022/11/09 05:35:57;;;;;;;9.30;1.75;;;;;;;15.42;100.00;96787.38;6089847;23;20017;-94
2022/11/09 05:38:23;;;;;;;10.38;1.70;;;;;;;15.78;100.00;96795.72;6064293;23;20412;-93
2022/11/09 05:40:53;;;;;;;9.98;1.52;;;;;;;15.75;100.00;96772.25;6063673;23;20010;-94
2022/11/09 05:43:19;;;;;;;10.70;1.67;;;;;;;15.52;100.00;96771.91;6064312;23;20441;-94
2022/11/09 05:45:45;;;;;;;9.27;1.48;;;;;;;15.17;100.00;96777.47;6063051;23;20053;-94
2022/11/09 05:48:13;;;;;;;8.25;1.38;;;;;;;16.14;100.00;96760.22;6063761;23;20038;-93
2022/11/09 05:50:40;;;;;;;10.82;1.70;;;;;;;16.57;100.00;96748.72;6063967;23;20006;-94
2022/11/09 05:53:06;;;;;;;7.75;1.33;;;;;;;15.60;100.00;96759.16;6089382;23;20010;-93
2022/11/09 05:55:32;;;;;;;7.85;1.83;;;;;;;15.76;100.00;96756.41;6063638;23;20010;-92
2022/11/09 05:57:57;;;;;;;9.13;1.35;;;;;;;15.06;100.00;96737.88;6064625;23;20534;-92
2022/11/09 06:00:23;;;;;;;9.10;1.80;;;;;;;15.73;100.00;96666.38;6062989;23;20049;-93
2022/11/09 06:02:48;;;;;;;35.50;2.75;;;;;;;15.82;100.00;96621.16;6064721;23;20026;-93
2022/11/09 06:05:15;;;;;;;14.52;1.63;;;;;;;15.86;100.00;96623.47;6087701;23;20474;-93
2022/11/09 06:07:41;;;;;;;11.02;1.60;;;;;;;16.88;100.00;96616.75;6063196;23;20147;-94
2022/11/09 06:10:07;;;;;;;8.13;1.48;;;;;;;15.59;100.00;96618.19;6063589;23;20006;-93
2022/11/09 06:12:33;;;;;;;8.55;2.15;;;;;;;16.53;100.00;96621.75;6064046;23;20506;-93
2022/11/09 06:14:58;;;;;;;9.80;1.58;;;;;;;15.90;100.00;96641.69;6063387;23;20022;-93
2022/11/09 06:17:24;;;;;;;12.73;1.92;;;;;;;15.99;100.00;96641.94;6088566;23;20072;-92
2022/11/09 06:19:49;;;;;;;10.23;1.40;;;;;;;15.97;100.00;96638.56;6062894;23;20010;-92
2022/11/09 06:22:14;;;;;;;13.98;1.70;;;;;;;15.98;100.00;96642.88;6063417;23;20340;-93
2022/11/09 06:24:40;;;;;;;9.95;1.67;;;;;;;15.75;100.00;96652.22;6063356;23;20029;-93
2022/11/09 06:27:05;;;;;;;10.80;1.55;;;;;;;15.86;100.00;96657.66;6064845;23;20018;-93
2022/11/09 06:29:31;;;;;;;9.77;1.25;;;;;;;16.36;100.00;96663.19;6063659;23;20017;-93
2022/11/09 06:31:56;;;;;;;8.15;1.40;;;;;;;16.24;100.00;96656.09;6063919;23;20097;-92
2022/11/09 06:34:22;;;;;;;19.65;2.00;;;;;;;16.38;100.00;96673.59;6062734;23;20053;-94
2022/11/09 06:36:47;;;;;;;10.13;1.60;;;;;;;16.49;100.00;96684.28;6063363;23;20018;-92
2022/11/09 06:39:12;;;;;;;10.02;1.30;;;;;;;16.32;100.00;96682.75;6063822;23;20064;-93
2022/11/09 06:41:38;;;;;;;6.85;1.42;;;;;;;16.44;100.00;96683.75;6064537;23;20014;-93
2022/11/09 06:44:05;;;;;;;10.15;1.73;;;;;;;17.12;100.00;96678.34;6064367;23;20074;-95
2022/11/09 06:46:33;;;;;;;8.52;1.35;;;;;;;17.10;100.00;96682.91;6066868;23;20463;-95
2022/11/09 06:48:59;;;;;;;6.82;1.10;;;;;;;16.93;100.00;96686.69;6067144;23;20018;-94
2022/11/09 06:51:24;;;;;;;7.72;1.10;;;;;;;17.41;100.00;96678.97;6067967;23;20053;-94
2022/11/09 06:53:50;;;;;;;6.80;1.48;;;;;;;16.73;100.00;96684.41;6066165;23;20046;-94
2022/11/09 06:56:18;;;;;;;8.73;1.40;;;;;;;16.72;100.00;96700.31;6067210;23;20025;-94
2022/11/09 06:58:43;;;;;;;8.30;1.17;;;;;;;17.51;100.00;96695.00;6064227;23;20426;-94
2022/11/09 07:01:10;;;;;;;6.72;1.20;;;;;;;17.53;100.00;96699.19;6063251;23;20042;-94
2022/11/09 07:03:37;;;;;;;11.02;1.40;;;;;;;17.71;100.00;96704.94;6067064;23;20062;-95
2022/11/09 07:06:08;;;;;;;8.32;1.17;;;;;;;16.46;100.00;96707.31;6093871;23;20409;-95
2022/11/09 07:08:34;;;;;;;5.30;1.20;;;;;;;16.02;100.00;96718.00;6068339;23;20709;-94
2022/11/09 07:11:04;;;;;;;8.27;1.20;;;;;;;16.78;100.00;96712.22;6068147;23;20013;-94
2022/11/09 07:13:30;;;;;;;7.10;1.10;;;;;;;16.98;100.00;96713.53;6067509;23;20022;-95
2022/11/09 07:15:55;;;;;;;5.90;1.02;;;;;;;16.51;100.00;96718.38;6066842;23;20344;-93
2022/11/09 07:18:21;;;;;;;8.05;1.40;;;;;;;16.10;100.00;96724.53;6066615;23;20385;-93
2022/11/09 07:20:46;;;;;;;9.38;1.33;;;;;;;15.80;100.00;96736.06;6065736;23;20025;-93
2022/11/09 07:23:11;;;;;;;7.53;1.25;;;;;;;16.94;100.00;96722.59;6092729;23;20038;-96
2022/11/09 07:25:37;;;;;;;10.60;1.50;;;;;;;16.06;100.00;96733.56;6089825;23;20034;-94
2022/11/09 07:28:07;;;;;;;9.18;1.38;;;;;;;16.06;100.00;96730.94;6065366;23;20018;-92
2022/11/09 07:30:33;;;;;;;6.63;1.20;;;;;;;16.79;100.00;96737.63;6090880;23;20045;-93
2022/11/09 07:32:58;;;;;;;9.10;1.52;;;;;;;16.11;100.00;96744.63;6092160;23;19999;-94
2022/11/09 07:35:27;;;;;;;7.30;1.33;;;;;;;16.27;100.00;96742.72;6066428;23;20066;-88
2022/11/09 07:37:53;;;;;;;8.25;1.42;;;;;;;15.46;100.00;96762.63;6066812;23;20017;-94
2022/11/09 07:40:19;;;;;;;5.90;1.25;;;;;;;15.45;100.00;96757.44;6068885;23;20006;-94
2022/11/09 07:42:44;;;;;;;8.80;1.50;;;;;;;15.70;100.00;96757.63;6065092;23;20030;-94
2022/11/09 07:45:10;;;;;;;8.07;1.42;;;;;;;15.99;100.00;96767.28;6088376;23;20113;-94
2022/11/09 07:47:35;;;;;;;8.10;1.63;;;;;;;15.80;100.00;96767.59;6063813;23;20101;-93
2022/11/09 07:50:01;;;;;;;10.65;1.63;;;;;;;15.79;100.00;96760.63;6088660;23;20007;-95
2022/11/09 07:52:27;;;;;;;8.60;1.55;;;;;;;14.63;100.00;96786.72;6064279;23;20089;-94
2022/11/09 07:54:52;;;;;;;8.43;1.50;;;;;;;15.58;100.00;96787.28;6062909;23;20113;-95
2022/11/09 07:57:17;;;;;;;5.50;1.30;;;;;;;14.76;100.00;96792.09;6090332;23;20014;-93
2022/11/09 07:59:43;;;;;;;6.30;1.20;;;;;;;15.29;100.00;96796.91;6088869;23;20424;-94
2022/11/09 08:02:09;;;;;;;7.80;1.55;;;;;;;14.88;100.00;96813.31;6061968;23;20019;-96
2022/11/09 08:04:35;;;;;;;9.00;1.30;;;;;;;15.81;100.00;96811.31;6062681;23;20026;-94
2022/11/09 08:07:00;;;;;;;5.28;1.10;;;;;;;15.52;100.00;96819.19;6062675;23;20444;-94
2022/11/09 08:09:26;;;;;;;10.68;1.45;;;;;;;15.73;100.00;96814.41;6087560;23;20077;-93
2022/11/09 08:11:52;;;;;;;5.63;0.98;;;;;;;17.23;100.00;96811.03;6087597;23;19994;-94
2022/11/09 08:14:17;;;;;;;8.43;1.00;;;;;;;16.25;100.00;96820.88;6062081;23;20018;-93
2022/11/09 08:16:43;;;;;;;5.53;1.00;;;;;;;15.82;100.00;96818.28;6063072;23;20081;-93
2022/11/09 08:19:09;;;;;;;7.15;0.90;;;;;;;15.98;100.00;96824.28;6061209;23;20447;-93
2022/11/09 08:21:36;;;;;;;5.72;1.00;;;;;;;15.86;100.00;96841.66;6059555;23;20069;-94
2022/11/09 08:24:02;;;;;;;6.00;0.93;;;;;;;15.84;100.00;96838.28;6088330;23;20010;-93
2022/11/09 08:26:27;;;;;;;6.28;0.90;;;;;;;15.79;100.00;96839.47;6062764;23;20021;-93
2022/11/09 08:28:52;;;;;;;8.35;0.70;;;;;;;16.35;100.00;96836.91;6087576;23;20006;-93
2022/11/09 08:31:18;;;;;;;4.60;0.80;;;;;;;15.78;100.00;96838.63;6083560;23;20085;-94
2022/11/09 08:33:43;;;;;;;6.32;0.82;;;;;;;16.09;100.00;96849.91;6056750;23;20752;-92
2022/11/09 08:36:14;;;;;;;4.70;0.77;;;;;;;16.26;100.00;96843.59;6057645;23;20021;-93
2022/11/09 08:38:40;;;;;;;3.35;0.50;;;;;;;16.19;100.00;96855.44;6060547;23;20021;-94
2022/11/09 08:41:08;;;;;;;6.60;0.90;;;;;;;15.88;100.00;96859.97;6061126;23;20014;-93
2022/11/09 08:43:37;;;;;;;4.90;0.70;;;;;;;16.53;100.00;96863.84;6056791;23;20014;-93
2022/11/09 08:46:02;;;;;;;6.55;0.88;;;;;;;15.76;100.00;96868.56;6061144;23;20034;-93
2022/11/09 08:48:28;;;;;;;4.60;0.90;;;;;;;15.50;100.00;96877.09;6086546;23;20021;-93
2022/11/09 08:50:57;;;;;;;5.45;0.77;;;;;;;16.12;100.00;96872.56;6059288;23;20017;-93
2022/11/09 08:53:27;;;;;;;3.80;0.60;;;;;;;16.36;100.00;96867.53;6062280;23;20006;-92
2022/11/09 08:55:56;;;;;;;8.57;0.88;;;;;;;16.54;100.00;96857.66;6060244;23;20030;-93
2022/11/09 08:58:24;;;;;;;5.15;0.82;;;;;;;16.18;100.00;96872.16;6059929;23;20029;-93
2022/11/09 09:00:57;;;;;;;5.38;0.75;;;;;;;15.87;100.00;96871.44;6060668;23;20028;-92
2022/11/09 09:03:23;;;;;;;5.18;0.98;;;;;;;15.87;100.00;96872.25;6084630;23;20335;-92
2022/11/09 09:05:48;;;;;;;3.85;0.70;;;;;;;16.77;100.00;96866.72;6082788;23;20053;-92
2022/11/09 09:08:20;;;;;;;6.32;1.20;;;;;;;15.90;100.00;96873.03;6056185;23;20015;-92
2022/11/09 09:10:46;;;;;;;6.25;1.00;;;;;;;16.29;100.00;96880.22;6057512;23;20062;-93
2022/11/09 09:13:12;;;;;;;7.00;1.08;;;;;;;16.58;100.00;96872.28;6082990;23;20014;-93
2022/11/09 09:15:38;;;;;;;2.05;0.60;;;;;;;16.40;100.00;96887.47;6059297;23;20082;-91
2022/11/09 09:18:04;;;;;;;6.22;0.82;;;;;;;15.96;100.00;96881.34;6057810;23;20081;-93
2022/11/09 09:20:30;;;;;;;6.40;1.10;;;;;;;16.98;100.00;96887.31;6056691;23;20061;-92
2022/11/09 09:22:58;;;;;;;6.57;0.85;;;;;;;17.02;100.00;96894.94;6080503;23;20018;-89
2022/11/09 09:25:24;;;;;;;5.40;1.00;;;;;;;16.66;100.00;96885.81;6052733;23;20036;-92
2022/11/09 09:27:52;;;;;;;6.97;1.65;;;;;;;17.35;100.00;96892.81;6053349;23;20018;-92
2022/11/09 09:30:18;;;;;;;3.72;0.80;;;;;;;16.95;100.00;96898.06;6058511;23;20007;-94
2022/11/09 09:32:44;;;;;;;6.75;1.20;;;;;;;17.26;100.00;96890.78;6058375;23;20069;-92
2022/11/09 09:35:10;;;;;;;8.85;1.33;;;;;;;17.10;100.00;96899.69;6085389;23;20021;-93
2022/11/09 09:37:35;;;;;;;6.53;1.10;;;;;;;16.45;100.00;96905.56;6062690;23;20022;-89
2022/11/09 09:40:01;;;;;;;5.43;1.10;;;;;;;16.40;100.00;96929.56;6084862;23;20010;-91
2022/11/09 09:42:34;;;;;;;5.95;1.35;;;;;;;17.42;100.00;96916.97;6061130;23;20524;-91
2022/11/09 09:45:13;;;;;;;7.82;1.00;;;;;;;17.17;100.00;96921.22;6063425;23;20010;-93
2022/11/09 09:47:50;;;;;;;6.18;1.02;;;;;;;17.26;100.00;96930.31;6063403;23;20083;-92
2022/11/09 09:50:23;;;;;;;8.75;1.50;;;;;;;17.34;100.00;96933.28;6083546;23;20038;-91
2022/11/09 09:53:01;;;;;;;6.28;1.30;;;;;;;17.38;100.00;96930.38;6061582;23;20015;-94
2022/11/09 09:55:35;;;;;;;7.70;1.20;;;;;;;17.75;100.00;96934.97;6060748;23;20041;-91
2022/11/09 09:58:23;;;;;;;7.05;1.30;;;;;;;18.08;100.00;96942.41;6088327;23;20400;-93
2022/11/09 10:00:53;;;;;;;6.30;1.23;;;;;;;17.32;100.00;96951.81;6088066;23;20002;-93
2022/11/09 10:03:19;;;;;;;6.93;1.10;;;;;;;17.39;100.00;96950.47;6062889;23;20117;-92
2022/11/09 10:06:09;;;;;;;7.28;1.10;;;;;;;18.37;100.00;96950.09;6087926;23;20467;-94
2022/11/09 10:08:53;;;;;;;9.60;1.55;;;;;;;17.61;100.00;96954.34;6064580;23;20360;-92
2022/11/09 10:11:21;;;;;;;;;;;;;;;17.52;100.00;96961.06;6064651;23;20033;-91
2022/11/09 10:14:19;;;;;;;9.60;1.75;;;;;;;17.51;100.00;96969.09;6090791;23;20020;-92
2022/11/09 10:16:51;;;;;;;7.50;1.45;;;;;;;17.69;100.00;96962.59;6058105;23;20021;-92
2022/11/09 10:20:11;;;;;;;8.80;1.10;;;;;;;17.54;100.00;96966.25;6089110;23;20006;-93
2022/11/09 10:22:48;;;;;;;6.95;1.33;;;;;;;17.25;100.00;96973.41;6042914;23;20022;-91
2022/11/09 10:25:23;;;;;;;6.78;1.35;;;;;;;17.62;100.00;96966.59;6087606;23;20333;-90
2022/11/09 10:27:54;;;;;;;8.43;1.42;;;;;;;17.22;100.00;96979.72;6089849;23;20018;-92
2022/11/09 10:30:22;;;;;;;12.32;1.60;;;;;;;17.46;100.00;96986.97;6088242;23;20408;-89
2022/11/09 10:32:51;;;;;;;7.93;1.20;;;;;;;17.48;100.00;96990.34;6061320;23;20025;-90
2022/11/09 10:35:30;;;;;;;9.10;1.40;;;;;;;17.52;100.00;97003.25;6062442;23;20010;-92
2022/11/09 10:37:55;;;;;;;6.55;1.35;;;;;;;17.31;100.00;97012.53;6063590;23;20018;-91
2022/11/09 10:40:36;;;;;;;9.50;1.25;;;;;;;18.21;100.00;96999.59;6089452;23;20010;-92
2022/11/09 10:43:08;;;;;;;9.52;1.35;;;;;;;17.75;100.00;97024.59;6089523;23;20181;-92
2022/11/09 10:45:36;;;;;;;8.45;1.05;;;;;;;18.39;100.00;97013.34;6087299;23;20449;-91
2022/11/09 10:48:02;;;;;;;8.63;1.20;;;;;;;17.81;100.00;97026.81;6061810;23;20077;-91
2022/11/09 10:50:52;;;;;;;5.22;1.00;;;;;;;18.33;100.00;97025.16;6062494;23;20007;-92
2022/11/09 10:53:23;;;;;;;6.88;1.17;;;;;;;18.23;100.00;97032.84;6065071;23;20015;-91
2022/11/09 10:55:52;;;;;;;7.35;1.30;;;;;;;18.31;100.00;97021.75;6087875;23;20226;-91
2022/11/09 10:58:59;;;;;;;7.20;1.17;;;;;;;17.84;100.00;97034.56;6089136;23;20073;-92
2022/11/09 11:01:36;;;;;;;6.57;1.25;;;;;;;18.40;100.00;97030.88;6050108;23;20010;-92
2022/11/09 11:04:20;;;;;;;12.00;1.55;;;;;;;17.54;100.00;97035.59;6081381;23;20084;-92
2022/11/09 11:06:46;;;;;;;9.05;1.65;;;;;;;17.75;100.00;97045.69;6083344;23;20318;-90
2022/11/09 11:09:15;;;;;;;10.07;1.52;;;;;;;18.50;100.00;97034.53;6083738;23;20072;-91
2022/11/09 11:11:40;;;;;;;8.85;1.48;;;;;;;18.16;100.00;97044.78;6084757;23;20093;-91
2022/11/09 11:14:09;;;;;;;9.30;1.42;;;;;;;18.43;100.00;97057.88;6057493;23;20426;-91
2022/11/09 11:16:36;;;;;;;11.00;1.40;;;;;;;17.72;100.00;97054.66;6055780;23;20033;-90
2022/11/09 11:19:02;;;;;;;10.85;2.03;;;;;;;17.64;100.00;97058.75;6055380;23;20014;-91
2022/11/09 11:21:29;;;;;;;8.57;1.45;;;;;;;16.75;100.00;97067.81;6056378;23;20042;-91
2022/11/09 11:24:10;;;;;;;8.90;1.40;;;;;;;17.26;100.00;97073.44;6057291;23;20006;-91
2022/11/09 11:26:50;;;;;;;9.70;1.15;;;;;;;17.09;100.00;97084.16;6081820;23;20099;-91
2022/11/09 11:29:28;;;;;;;7.75;1.02;;;;;;;16.59;100.00;97092.44;6058721;23;20072;-90
2022/11/09 11:31:53;;;;;;;9.90;1.30;;;;;;;16.96;100.00;97084.09;6082490;23;20010;-91
2022/11/09 11:34:19;;;;;;;7.25;1.15;;;;;;;17.89;100.00;97084.34;6083817;23;20353;-90